Terminal Aerodrome Forecast
Issued by NWS

Home | Current Version | Previous Version | Text Only | Print | Product List | Glossary Off
Versions: 1 2 3 4 5 6 7 8 9 10 11 12 13 14 15 16 17 18 19 20 21 22 23 24 25 26 27 28 29 30 31 32 33 34 35 36 37 38

000
FTUS43 KLOT 291741
TAFORD
TAF
KORD 291741Z 2918/3024 16006KT P6SM VCSH BKN040 BKN080
      TEMPO 2918/2919 4SM TSRA BR BKN040CB
     FM292000 16004KT P6SM BKN040
     FM300000 VRB03KT 4SM BR BKN010 OVC025
     FM300300 03003KT 1SM BR OVC005
     FM301500 06004KT 3SM HZ SCT005 BKN009
     FM301800 09006KT P6SM SCT010 BKN019=

USA.gov is the U.S. government's official web portal to all federal, state and local government web resources and services.